sensor_id;sensor_type;location;lat;lon;timestamp;P1;durP1;ratioP1;P2;durP2;ratioP2
14907;SDS011;7545;52.092;7.006;2024-02-21T00:00:43;15.93;;;7.47;;
14907;SDS011;7545;52.092;7.006;2024-02-21T00:03:08;14.75;;;7.53;;
14907;SDS011;7545;52.092;7.006;2024-02-21T00:05:34;15.82;;;7.72;;
14907;SDS011;7545;52.092;7.006;2024-02-21T00:08:00;13.27;;;7.32;;
14907;SDS011;7545;52.092;7.006;2024-02-21T00:10:25;18.08;;;8.43;;
14907;SDS011;7545;52.092;7.006;2024-02-21T00:12:51;18.88;;;8.55;;
14907;SDS011;7545;52.092;7.006;2024-02-21T00:15:17;14.38;;;7.40;;
14907;SDS011;7545;52.092;7.006;2024-02-21T00:17:43;14.10;;;7.78;;
14907;SDS011;7545;52.092;7.006;2024-02-21T00:20:09;16.20;;;7.40;;
14907;SDS011;7545;52.092;7.006;2024-02-21T00:22:36;13.23;;;7.63;;
14907;SDS011;7545;52.092;7.006;2024-02-21T00:25:02;13.02;;;6.63;;
14907;SDS011;7545;52.092;7.006;2024-02-21T00:27:28;11.52;;;6.93;;
14907;SDS011;7545;52.092;7.006;2024-02-21T00:29:53;20.05;;;7.93;;
14907;SDS011;7545;52.092;7.006;2024-02-21T00:32:19;11.57;;;7.17;;
14907;SDS011;7545;52.092;7.006;2024-02-21T00:34:44;16.45;;;8.27;;
14907;SDS011;7545;52.092;7.006;2024-02-21T00:37:10;11.40;;;7.22;;
14907;SDS011;7545;52.092;7.006;2024-02-21T00:39:35;22.27;;;8.93;;
14907;SDS011;7545;52.092;7.006;2024-02-21T00:42:02;14.75;;;7.47;;
14907;SDS011;7545;52.092;7.006;2024-02-21T00:44:27;12.65;;;7.00;;
14907;SDS011;7545;52.092;7.006;2024-02-21T00:46:53;13.80;;;6.53;;
14907;SDS011;7545;52.092;7.006;2024-02-21T00:49:19;13.37;;;7.43;;
14907;SDS011;7545;52.092;7.006;2024-02-21T00:51:44;17.17;;;8.38;;
14907;SDS011;7545;52.092;7.006;2024-02-21T00:54:10;12.23;;;6.78;;
14907;SDS011;7545;52.092;7.006;2024-02-21T00:56:35;15.13;;;7.22;;
14907;SDS011;7545;52.092;7.006;2024-02-21T00:59:01;12.90;;;7.13;;
14907;SDS011;7545;52.092;7.006;2024-02-21T01:01:27;18.48;;;9.05;;
14907;SDS011;7545;52.092;7.006;2024-02-21T01:03:52;14.15;;;7.35;;
14907;SDS011;7545;52.092;7.006;2024-02-21T01:06:19;13.57;;;7.07;;
14907;SDS011;7545;52.092;7.006;2024-02-21T01:08:46;17.10;;;7.97;;
14907;SDS011;7545;52.092;7.006;2024-02-21T01:11:12;16.42;;;7.28;;
14907;SDS011;7545;52.092;7.006;2024-02-21T01:13:39;11.23;;;6.80;;
14907;SDS011;7545;52.092;7.006;2024-02-21T01:16:04;14.35;;;7.07;;
14907;SDS011;7545;52.092;7.006;2024-02-21T01:18:31;13.95;;;6.95;;
14907;SDS011;7545;52.092;7.006;2024-02-21T01:20:57;14.60;;;7.50;;
14907;SDS011;7545;52.092;7.006;2024-02-21T01:23:23;15.37;;;7.17;;
14907;SDS011;7545;52.092;7.006;2024-02-21T01:25:48;14.40;;;6.47;;
14907;SDS011;7545;52.092;7.006;2024-02-21T01:28:14;14.85;;;7.95;;
14907;SDS011;7545;52.092;7.006;2024-02-21T01:30:40;11.90;;;7.15;;
14907;SDS011;7545;52.092;7.006;2024-02-21T01:33:05;15.25;;;7.40;;
14907;SDS011;7545;52.092;7.006;2024-02-21T01:35:31;14.03;;;6.93;;
14907;SDS011;7545;52.092;7.006;2024-02-21T01:37:56;11.77;;;6.70;;
14907;SDS011;7545;52.092;7.006;2024-02-21T01:40:22;11.82;;;7.07;;
14907;SDS011;7545;52.092;7.006;2024-02-21T01:42:48;17.95;;;7.13;;
14907;SDS011;7545;52.092;7.006;2024-02-21T01:45:13;14.52;;;7.82;;
14907;SDS011;7545;52.092;7.006;2024-02-21T01:47:39;16.17;;;7.32;;
14907;SDS011;7545;52.092;7.006;2024-02-21T01:50:05;12.23;;;7.40;;
14907;SDS011;7545;52.092;7.006;2024-02-21T01:52:31;13.20;;;6.82;;
14907;SDS011;7545;52.092;7.006;2024-02-21T01:54:59;13.23;;;7.22;;
14907;SDS011;7545;52.092;7.006;2024-02-21T01:57:25;15.68;;;6.60;;
14907;SDS011;7545;52.092;7.006;2024-02-21T01:59:53;14.30;;;7.18;;
14907;SDS011;7545;52.092;7.006;2024-02-21T02:02:19;16.80;;;7.50;;
14907;SDS011;7545;52.092;7.006;2024-02-21T02:04:45;17.33;;;7.72;;
14907;SDS011;7545;52.092;7.006;2024-02-21T02:07:11;13.70;;;7.55;;
14907;SDS011;7545;52.092;7.006;2024-02-21T02:09:36;11.95;;;6.35;;
14907;SDS011;7545;52.092;7.006;2024-02-21T02:12:02;16.80;;;7.40;;
14907;SDS011;7545;52.092;7.006;2024-02-21T02:14:28;14.95;;;6.55;;
14907;SDS011;7545;52.092;7.006;2024-02-21T02:16:53;11.57;;;6.65;;
14907;SDS011;7545;52.092;7.006;2024-02-21T02:19:19;15.32;;;7.55;;
14907;SDS011;7545;52.092;7.006;2024-02-21T02:21:50;13.38;;;6.82;;
14907;SDS011;7545;52.092;7.006;2024-02-21T02:24:20;16.73;;;6.97;;
14907;SDS011;7545;52.092;7.006;2024-02-21T02:26:47;12.63;;;6.85;;
14907;SDS011;7545;52.092;7.006;2024-02-21T02:29:12;11.82;;;7.07;;
14907;SDS011;7545;52.092;7.006;2024-02-21T02:31:38;14.02;;;7.18;;
14907;SDS011;7545;52.092;7.006;2024-02-21T02:34:03;13.95;;;6.70;;
14907;SDS011;7545;52.092;7.006;2024-02-21T02:36:31;16.48;;;7.35;;
14907;SDS011;7545;52.092;7.006;2024-02-21T02:38:57;14.40;;;7.22;;
14907;SDS011;7545;52.092;7.006;2024-02-21T02:41:23;13.40;;;6.72;;
14907;SDS011;7545;52.092;7.006;2024-02-21T02:43:48;13.38;;;6.75;;
14907;SDS011;7545;52.092;7.006;2024-02-21T02:46:14;11.95;;;6.22;;
14907;SDS011;7545;52.092;7.006;2024-02-21T02:48:39;13.88;;;7.22;;
14907;SDS011;7545;52.092;7.006;2024-02-21T02:51:05;11.05;;;6.88;;
14907;SDS011;7545;52.092;7.006;2024-02-21T02:53:31;14.05;;;6.72;;
14907;SDS011;7545;52.092;7.006;2024-02-21T02:55:56;14.85;;;6.50;;
14907;SDS011;7545;52.092;7.006;2024-02-21T02:58:22;16.70;;;7.63;;
14907;SDS011;7545;52.092;7.006;2024-02-21T03:00:48;15.75;;;7.00;;
14907;SDS011;7545;52.092;7.006;2024-02-21T03:03:13;10.50;;;7.07;;
14907;SDS011;7545;52.092;7.006;2024-02-21T03:05:39;12.63;;;6.50;;
14907;SDS011;7545;52.092;7.006;2024-02-21T03:08:05;13.73;;;7.50;;
14907;SDS011;7545;52.092;7.006;2024-02-21T03:10:32;11.60;;;6.43;;
14907;SDS011;7545;52.092;7.006;2024-02-21T03:12:58;14.05;;;6.88;;
14907;SDS011;7545;52.092;7.006;2024-02-21T03:15:24;11.57;;;6.82;;
14907;SDS011;7545;52.092;7.006;2024-02-21T03:17:49;10.48;;;6.55;;
14907;SDS011;7545;52.092;7.006;2024-02-21T03:20:15;15.95;;;6.57;;
14907;SDS011;7545;52.092;7.006;2024-02-21T03:22:41;14.13;;;8.27;;
14907;SDS011;7545;52.092;7.006;2024-02-21T03:25:07;11.85;;;6.72;;
14907;SDS011;7545;52.092;7.006;2024-02-21T03:27:34;12.20;;;6.13;;
14907;SDS011;7545;52.092;7.006;2024-02-21T03:29:59;12.45;;;6.82;;
14907;SDS011;7545;52.092;7.006;2024-02-21T03:32:25;14.00;;;6.40;;
14907;SDS011;7545;52.092;7.006;2024-02-21T03:34:51;13.55;;;7.38;;
14907;SDS011;7545;52.092;7.006;2024-02-21T03:37:16;12.05;;;6.70;;
14907;SDS011;7545;52.092;7.006;2024-02-21T03:39:42;11.43;;;6.43;;
14907;SDS011;7545;52.092;7.006;2024-02-21T03:42:07;10.60;;;5.93;;
14907;SDS011;7545;52.092;7.006;2024-02-21T03:44:33;15.77;;;7.30;;
14907;SDS011;7545;52.092;7.006;2024-02-21T03:46:59;13.63;;;8.00;;
14907;SDS011;7545;52.092;7.006;2024-02-21T03:49:25;15.98;;;6.88;;
14907;SDS011;7545;52.092;7.006;2024-02-21T03:51:51;15.20;;;7.17;;
14907;SDS011;7545;52.092;7.006;2024-02-21T03:54:17;14.70;;;7.47;;
14907;SDS011;7545;52.092;7.006;2024-02-21T03:56:43;16.27;;;7.55;;
14907;SDS011;7545;52.092;7.006;2024-02-21T03:59:08;10.30;;;6.90;;
14907;SDS011;7545;52.092;7.006;2024-02-21T04:01:34;21.27;;;7.38;;
14907;SDS011;7545;52.092;7.006;2024-02-21T04:04:00;11.20;;;6.47;;
14907;SDS011;7545;52.092;7.006;2024-02-21T04:06:26;14.27;;;6.53;;
14907;SDS011;7545;52.092;7.006;2024-02-21T04:08:52;14.10;;;6.63;;
14907;SDS011;7545;52.092;7.006;2024-02-21T04:11:17;14.30;;;7.15;;
14907;SDS011;7545;52.092;7.006;2024-02-21T04:13:44;10.27;;;6.32;;
14907;SDS011;7545;52.092;7.006;2024-02-21T04:16:10;10.35;;;6.25;;
14907;SDS011;7545;52.092;7.006;2024-02-21T04:18:36;13.20;;;6.38;;
14907;SDS011;7545;52.092;7.006;2024-02-21T04:21:01;14.77;;;6.68;;
14907;SDS011;7545;52.092;7.006;2024-02-21T04:23:27;14.48;;;5.93;;
14907;SDS011;7545;52.092;7.006;2024-02-21T04:25:53;9.98;;;5.60;;
14907;SDS011;7545;52.092;7.006;2024-02-21T04:28:18;9.93;;;6.13;;
14907;SDS011;7545;52.092;7.006;2024-02-21T04:30:44;10.27;;;6.70;;
14907;SDS011;7545;52.092;7.006;2024-02-21T04:33:09;8.52;;;6.20;;
14907;SDS011;7545;52.092;7.006;2024-02-21T04:35:38;15.00;;;5.80;;
14907;SDS011;7545;52.092;7.006;2024-02-21T04:38:04;15.63;;;5.60;;
14907;SDS011;7545;52.092;7.006;2024-02-21T04:40:30;8.63;;;5.43;;
14907;SDS011;7545;52.092;7.006;2024-02-21T04:42:55;11.60;;;5.87;;
14907;SDS011;7545;52.092;7.006;2024-02-21T04:45:22;14.32;;;5.47;;
14907;SDS011;7545;52.092;7.006;2024-02-21T04:47:47;13.68;;;5.78;;
14907;SDS011;7545;52.092;7.006;2024-02-21T04:50:13;9.27;;;5.38;;
14907;SDS011;7545;52.092;7.006;2024-02-21T04:52:38;11.18;;;6.07;;
14907;SDS011;7545;52.092;7.006;2024-02-21T04:55:04;12.50;;;6.18;;
14907;SDS011;7545;52.092;7.006;2024-02-21T04:57:30;12.48;;;5.45;;
14907;SDS011;7545;52.092;7.006;2024-02-21T04:59:55;8.35;;;5.15;;
14907;SDS011;7545;52.092;7.006;2024-02-21T05:02:21;11.88;;;5.07;;
14907;SDS011;7545;52.092;7.006;2024-02-21T05:04:49;10.85;;;5.85;;
14907;SDS011;7545;52.092;7.006;2024-02-21T05:07:15;15.52;;;6.20;;
14907;SDS011;7545;52.092;7.006;2024-02-21T05:09:41;12.98;;;5.63;;
14907;SDS011;7545;52.092;7.006;2024-02-21T05:12:07;9.10;;;5.35;;
14907;SDS011;7545;52.092;7.006;2024-02-21T05:14:33;9.73;;;5.10;;
14907;SDS011;7545;52.092;7.006;2024-02-21T05:16:59;9.25;;;4.80;;
14907;SDS011;7545;52.092;7.006;2024-02-21T05:19:24;11.43;;;4.55;;
14907;SDS011;7545;52.092;7.006;2024-02-21T05:21:50;6.07;;;4.40;;
14907;SDS011;7545;52.092;7.006;2024-02-21T05:24:16;7.38;;;5.00;;
14907;SDS011;7545;52.092;7.006;2024-02-21T05:26:41;9.70;;;4.75;;
14907;SDS011;7545;52.092;7.006;2024-02-21T05:29:07;13.50;;;5.33;;
14907;SDS011;7545;52.092;7.006;2024-02-21T05:34:19;8.88;;;4.88;;
14907;SDS011;7545;52.092;7.006;2024-02-21T05:36:46;12.45;;;5.60;;
14907;SDS011;7545;52.092;7.006;2024-02-21T05:39:12;10.52;;;4.82;;
14907;SDS011;7545;52.092;7.006;2024-02-21T05:41:38;10.52;;;4.82;;
14907;SDS011;7545;52.092;7.006;2024-02-21T05:44:04;13.32;;;6.07;;
14907;SDS011;7545;52.092;7.006;2024-02-21T05:46:29;9.35;;;4.53;;
14907;SDS011;7545;52.092;7.006;2024-02-21T05:48:55;15.80;;;5.38;;
14907;SDS011;7545;52.092;7.006;2024-02-21T05:51:20;10.23;;;4.85;;
14907;SDS011;7545;52.092;7.006;2024-02-21T05:53:46;11.27;;;5.75;;
14907;SDS011;7545;52.092;7.006;2024-02-21T05:56:12;8.15;;;4.63;;
14907;SDS011;7545;52.092;7.006;2024-02-21T05:58:38;11.53;;;5.60;;
14907;SDS011;7545;52.092;7.006;2024-02-21T06:01:04;9.50;;;4.68;;
14907;SDS011;7545;52.092;7.006;2024-02-21T06:03:31;8.33;;;5.03;;
14907;SDS011;7545;52.092;7.006;2024-02-21T06:06:01;10.52;;;5.00;;
14907;SDS011;7545;52.092;7.006;2024-02-21T06:08:27;9.00;;;4.72;;
14907;SDS011;7545;52.092;7.006;2024-02-21T06:10:53;11.25;;;5.55;;
14907;SDS011;7545;52.092;7.006;2024-02-21T06:13:23;9.18;;;4.68;;
14907;SDS011;7545;52.092;7.006;2024-02-21T06:15:49;13.10;;;5.60;;
14907;SDS011;7545;52.092;7.006;2024-02-21T06:18:15;9.48;;;5.13;;
14907;SDS011;7545;52.092;7.006;2024-02-21T06:20:44;12.40;;;4.78;;
14907;SDS011;7545;52.092;7.006;2024-02-21T06:23:11;7.80;;;4.97;;
14907;SDS011;7545;52.092;7.006;2024-02-21T06:25:37;12.13;;;5.78;;
14907;SDS011;7545;52.092;7.006;2024-02-21T06:28:04;10.90;;;5.60;;
14907;SDS011;7545;52.092;7.006;2024-02-21T06:30:30;9.50;;;5.47;;
14907;SDS011;7545;52.092;7.006;2024-02-21T06:32:55;15.20;;;5.88;;
14907;SDS011;7545;52.092;7.006;2024-02-21T06:35:21;9.35;;;5.35;;
14907;SDS011;7545;52.092;7.006;2024-02-21T06:37:49;9.73;;;5.03;;
14907;SDS011;7545;52.092;7.006;2024-02-21T06:40:16;12.10;;;5.90;;
14907;SDS011;7545;52.092;7.006;2024-02-21T06:42:42;11.85;;;5.90;;
14907;SDS011;7545;52.092;7.006;2024-02-21T06:45:08;7.95;;;5.07;;
14907;SDS011;7545;52.092;7.006;2024-02-21T06:47:34;9.55;;;5.18;;
14907;SDS011;7545;52.092;7.006;2024-02-21T06:49:59;9.93;;;5.40;;
14907;SDS011;7545;52.092;7.006;2024-02-21T06:52:25;12.23;;;5.80;;
14907;SDS011;7545;52.092;7.006;2024-02-21T06:54:51;9.43;;;5.72;;
14907;SDS011;7545;52.092;7.006;2024-02-21T06:57:17;11.57;;;5.93;;
14907;SDS011;7545;52.092;7.006;2024-02-21T06:59:43;10.90;;;5.93;;
14907;SDS011;7545;52.092;7.006;2024-02-21T07:02:08;8.20;;;4.55;;
14907;SDS011;7545;52.092;7.006;2024-02-21T07:04:34;8.10;;;5.40;;
14907;SDS011;7545;52.092;7.006;2024-02-21T07:07:00;11.38;;;5.18;;
14907;SDS011;7545;52.092;7.006;2024-02-21T07:09:25;9.52;;;5.15;;
14907;SDS011;7545;52.092;7.006;2024-02-21T07:11:53;10.80;;;5.68;;
14907;SDS011;7545;52.092;7.006;2024-02-21T07:14:19;8.30;;;4.87;;
14907;SDS011;7545;52.092;7.006;2024-02-21T07:16:44;8.45;;;4.93;;
14907;SDS011;7545;52.092;7.006;2024-02-21T07:19:10;10.47;;;4.43;;
14907;SDS011;7545;52.092;7.006;2024-02-21T07:21:35;13.27;;;6.33;;
14907;SDS011;7545;52.092;7.006;2024-02-21T07:24:03;11.70;;;5.07;;
14907;SDS011;7545;52.092;7.006;2024-02-21T07:26:29;9.43;;;4.38;;
14907;SDS011;7545;52.092;7.006;2024-02-21T07:28:56;10.32;;;5.18;;
14907;SDS011;7545;52.092;7.006;2024-02-21T07:31:21;9.90;;;5.32;;
14907;SDS011;7545;52.092;7.006;2024-02-21T07:33:47;8.45;;;5.32;;
14907;SDS011;7545;52.092;7.006;2024-02-21T07:36:14;10.03;;;4.83;;
14907;SDS011;7545;52.092;7.006;2024-02-21T07:38:41;8.13;;;4.90;;
14907;SDS011;7545;52.092;7.006;2024-02-21T07:41:07;9.30;;;5.00;;
14907;SDS011;7545;52.092;7.006;2024-02-21T07:43:32;7.47;;;4.65;;
14907;SDS011;7545;52.092;7.006;2024-02-21T07:45:58;10.82;;;5.03;;
14907;SDS011;7545;52.092;7.006;2024-02-21T07:48:24;7.45;;;4.50;;
14907;SDS011;7545;52.092;7.006;2024-02-21T07:50:50;9.35;;;4.70;;
14907;SDS011;7545;52.092;7.006;2024-02-21T07:53:16;6.63;;;4.30;;
14907;SDS011;7545;52.092;7.006;2024-02-21T07:55:41;9.57;;;4.72;;
14907;SDS011;7545;52.092;7.006;2024-02-21T07:58:07;7.80;;;4.20;;
14907;SDS011;7545;52.092;7.006;2024-02-21T08:00:32;12.90;;;4.50;;
14907;SDS011;7545;52.092;7.006;2024-02-21T08:02:58;10.20;;;5.35;;
14907;SDS011;7545;52.092;7.006;2024-02-21T08:05:24;8.38;;;5.47;;
14907;SDS011;7545;52.092;7.006;2024-02-21T08:07:49;12.57;;;4.68;;
14907;SDS011;7545;52.092;7.006;2024-02-21T08:10:15;9.52;;;4.10;;
14907;SDS011;7545;52.092;7.006;2024-02-21T08:12:40;13.60;;;5.07;;
14907;SDS011;7545;52.092;7.006;2024-02-21T08:15:06;11.20;;;4.57;;
14907;SDS011;7545;52.092;7.006;2024-02-21T08:17:35;7.78;;;4.18;;
14907;SDS011;7545;52.092;7.006;2024-02-21T08:20:01;8.73;;;4.40;;
14907;SDS011;7545;52.092;7.006;2024-02-21T08:22:27;11.30;;;4.80;;
14907;SDS011;7545;52.092;7.006;2024-02-21T08:24:53;10.77;;;4.47;;
14907;SDS011;7545;52.092;7.006;2024-02-21T08:27:19;9.65;;;3.75;;
14907;SDS011;7545;52.092;7.006;2024-02-21T08:29:44;5.28;;;4.10;;
14907;SDS011;7545;52.092;7.006;2024-02-21T08:32:10;7.57;;;3.45;;
14907;SDS011;7545;52.092;7.006;2024-02-21T08:34:35;7.28;;;3.97;;
14907;SDS011;7545;52.092;7.006;2024-02-21T08:37:01;8.48;;;4.47;;
14907;SDS011;7545;52.092;7.006;2024-02-21T08:39:27;6.72;;;3.90;;
14907;SDS011;7545;52.092;7.006;2024-02-21T08:41:53;8.32;;;4.13;;
14907;SDS011;7545;52.092;7.006;2024-02-21T08:44:19;8.77;;;3.90;;
14907;SDS011;7545;52.092;7.006;2024-02-21T08:46:47;10.93;;;3.92;;
14907;SDS011;7545;52.092;7.006;2024-02-21T08:49:12;6.70;;;3.47;;
14907;SDS011;7545;52.092;7.006;2024-02-21T08:51:38;9.07;;;4.18;;
14907;SDS011;7545;52.092;7.006;2024-02-21T08:54:04;12.07;;;3.95;;
14907;SDS011;7545;52.092;7.006;2024-02-21T08:56:30;6.72;;;4.38;;
14907;SDS011;7545;52.092;7.006;2024-02-21T08:58:56;6.38;;;3.65;;
14907;SDS011;7545;52.092;7.006;2024-02-21T09:01:22;11.30;;;5.28;;
14907;SDS011;7545;52.092;7.006;2024-02-21T09:03:48;6.00;;;3.47;;
14907;SDS011;7545;52.092;7.006;2024-02-21T09:06:18;9.55;;;3.92;;
14907;SDS011;7545;52.092;7.006;2024-02-21T09:08:44;8.13;;;3.95;;
14907;SDS011;7545;52.092;7.006;2024-02-21T09:11:10;7.13;;;4.15;;
14907;SDS011;7545;52.092;7.006;2024-02-21T09:13:36;8.05;;;4.18;;
14907;SDS011;7545;52.092;7.006;2024-02-21T09:16:02;8.60;;;4.45;;
14907;SDS011;7545;52.092;7.006;2024-02-21T09:18:28;7.90;;;4.55;;
14907;SDS011;7545;52.092;7.006;2024-02-21T09:20:54;6.60;;;4.38;;
14907;SDS011;7545;52.092;7.006;2024-02-21T09:23:20;11.75;;;4.95;;
14907;SDS011;7545;52.092;7.006;2024-02-21T09:25:48;10.05;;;4.10;;
14907;SDS011;7545;52.092;7.006;2024-02-21T09:28:14;10.32;;;5.50;;
14907;SDS011;7545;52.092;7.006;2024-02-21T09:30:39;5.75;;;3.65;;
14907;SDS011;7545;52.092;7.006;2024-02-21T09:33:05;9.70;;;4.85;;
14907;SDS011;7545;52.092;7.006;2024-02-21T09:35:31;14.15;;;5.25;;
14907;SDS011;7545;52.092;7.006;2024-02-21T09:37:58;5.03;;;3.50;;
14907;SDS011;7545;52.092;7.006;2024-02-21T09:40:24;8.88;;;5.18;;
14907;SDS011;7545;52.092;7.006;2024-02-21T09:42:50;6.93;;;4.70;;
14907;SDS011;7545;52.092;7.006;2024-02-21T09:45:28;7.35;;;4.28;;
14907;SDS011;7545;52.092;7.006;2024-02-21T09:50:41;7.35;;;4.13;;
14907;SDS011;7545;52.092;7.006;2024-02-21T09:53:08;10.35;;;4.28;;
14907;SDS011;7545;52.092;7.006;2024-02-21T09:55:37;7.07;;;3.78;;
14907;SDS011;7545;52.092;7.006;2024-02-21T09:58:05;6.97;;;3.78;;
14907;SDS011;7545;52.092;7.006;2024-02-21T10:00:32;11.57;;;4.68;;
14907;SDS011;7545;52.092;7.006;2024-02-21T10:02:58;7.72;;;3.72;;
14907;SDS011;7545;52.092;7.006;2024-02-21T10:05:24;5.78;;;4.18;;
14907;SDS011;7545;52.092;7.006;2024-02-21T10:07:50;6.85;;;3.78;;
14907;SDS011;7545;52.092;7.006;2024-02-21T10:10:16;7.03;;;3.28;;
14907;SDS011;7545;52.092;7.006;2024-02-21T10:12:49;9.23;;;3.58;;
14907;SDS011;7545;52.092;7.006;2024-02-21T10:15:22;6.95;;;3.75;;
14907;SDS011;7545;52.092;7.006;2024-02-21T10:17:50;5.65;;;3.13;;
14907;SDS011;7545;52.092;7.006;2024-02-21T10:20:24;6.70;;;3.92;;
14907;SDS011;7545;52.092;7.006;2024-02-21T10:22:59;4.28;;;3.00;;
14907;SDS011;7545;52.092;7.006;2024-02-21T10:25:27;6.65;;;3.17;;
14907;SDS011;7545;52.092;7.006;2024-02-21T10:27:52;5.35;;;2.70;;
14907;SDS011;7545;52.092;7.006;2024-02-21T10:30:18;5.45;;;3.80;;
14907;SDS011;7545;52.092;7.006;2024-02-21T10:32:52;6.93;;;3.03;;
14907;SDS011;7545;52.092;7.006;2024-02-21T10:35:28;6.07;;;2.83;;
14907;SDS011;7545;52.092;7.006;2024-02-21T10:37:55;6.05;;;3.40;;
14907;SDS011;7545;52.092;7.006;2024-02-21T10:40:28;4.43;;;2.92;;
14907;SDS011;7545;52.092;7.006;2024-02-21T10:42:59;4.47;;;3.20;;
14907;SDS011;7545;52.092;7.006;2024-02-21T10:45:35;4.65;;;2.75;;
14907;SDS011;7545;52.092;7.006;2024-02-21T10:48:10;7.15;;;3.13;;
14907;SDS011;7545;52.092;7.006;2024-02-21T10:50:50;4.43;;;2.70;;
14907;SDS011;7545;52.092;7.006;2024-02-21T10:55:58;4.60;;;2.97;;
14907;SDS011;7545;52.092;7.006;2024-02-21T10:58:35;4.60;;;3.80;;
14907;SDS011;7545;52.092;7.006;2024-02-21T11:01:00;4.75;;;3.70;;
14907;SDS011;7545;52.092;7.006;2024-02-21T11:03:28;3.80;;;2.80;;
14907;SDS011;7545;52.092;7.006;2024-02-21T11:05:54;5.80;;;3.83;;
14907;SDS011;7545;52.092;7.006;2024-02-21T11:08:20;6.15;;;3.53;;
14907;SDS011;7545;52.092;7.006;2024-02-21T11:10:46;8.23;;;3.22;;
14907;SDS011;7545;52.092;7.006;2024-02-21T11:13:11;8.20;;;3.35;;
14907;SDS011;7545;52.092;7.006;2024-02-21T11:15:38;5.50;;;3.05;;
14907;SDS011;7545;52.092;7.006;2024-02-21T11:18:04;5.20;;;3.00;;
14907;SDS011;7545;52.092;7.006;2024-02-21T11:20:36;3.35;;;2.30;;
14907;SDS011;7545;52.092;7.006;2024-02-21T11:23:03;3.47;;;2.45;;
14907;SDS011;7545;52.092;7.006;2024-02-21T11:25:29;6.43;;;2.97;;
14907;SDS011;7545;52.092;7.006;2024-02-21T11:28:03;5.00;;;2.72;;
14907;SDS011;7545;52.092;7.006;2024-02-21T11:30:30;4.72;;;3.28;;
14907;SDS011;7545;52.092;7.006;2024-02-21T11:33:05;5.10;;;2.70;;
14907;SDS011;7545;52.092;7.006;2024-02-21T11:35:35;7.03;;;3.17;;
14907;SDS011;7545;52.092;7.006;2024-02-21T11:38:34;5.57;;;2.53;;
14907;SDS011;7545;52.092;7.006;2024-02-21T11:40:53;6.50;;;3.08;;
14907;SDS011;7545;52.092;7.006;2024-02-21T11:43:18;7.60;;;3.30;;
14907;SDS011;7545;52.092;7.006;2024-02-21T11:45:45;7.30;;;2.83;;
14907;SDS011;7545;52.092;7.006;2024-02-21T11:48:10;4.32;;;2.60;;
14907;SDS011;7545;52.092;7.006;2024-02-21T11:50:36;5.65;;;3.10;;
14907;SDS011;7545;52.092;7.006;2024-02-21T11:53:04;5.63;;;3.00;;
14907;SDS011;7545;52.092;7.006;2024-02-21T11:55:30;6.95;;;3.05;;
14907;SDS011;7545;52.092;7.006;2024-02-21T11:57:55;9.48;;;3.22;;
14907;SDS011;7545;52.092;7.006;2024-02-21T12:00:21;8.38;;;3.35;;
14907;SDS011;7545;52.092;7.006;2024-02-21T12:02:49;4.93;;;2.65;;
14907;SDS011;7545;52.092;7.006;2024-02-21T12:05:15;6.20;;;2.58;;
14907;SDS011;7545;52.092;7.006;2024-02-21T12:07:41;3.83;;;2.85;;
14907;SDS011;7545;52.092;7.006;2024-02-21T12:10:10;7.53;;;2.63;;
14907;SDS011;7545;52.092;7.006;2024-02-21T12:12:36;4.15;;;2.38;;
14907;SDS011;7545;52.092;7.006;2024-02-21T12:15:03;6.57;;;2.55;;
14907;SDS011;7545;52.092;7.006;2024-02-21T12:17:30;8.80;;;3.05;;
14907;SDS011;7545;52.092;7.006;2024-02-21T12:19:57;6.60;;;2.50;;
14907;SDS011;7545;52.092;7.006;2024-02-21T12:22:24;5.50;;;3.03;;
14907;SDS011;7545;52.092;7.006;2024-02-21T12:24:51;6.78;;;3.03;;
14907;SDS011;7545;52.092;7.006;2024-02-21T12:27:17;3.25;;;2.20;;
14907;SDS011;7545;52.092;7.006;2024-02-21T12:29:42;3.88;;;2.70;;
14907;SDS011;7545;52.092;7.006;2024-02-21T12:32:08;5.88;;;2.47;;
14907;SDS011;7545;52.092;7.006;2024-02-21T12:34:33;4.18;;;2.65;;
14907;SDS011;7545;52.092;7.006;2024-02-21T12:36:59;3.67;;;2.38;;
14907;SDS011;7545;52.092;7.006;2024-02-21T12:39:26;5.28;;;2.60;;
14907;SDS011;7545;52.092;7.006;2024-02-21T12:41:55;4.68;;;2.72;;
14907;SDS011;7545;52.092;7.006;2024-02-21T12:44:23;8.88;;;2.60;;
14907;SDS011;7545;52.092;7.006;2024-02-21T12:46:49;6.47;;;3.03;;
14907;SDS011;7545;52.092;7.006;2024-02-21T12:49:17;6.38;;;2.92;;
14907;SDS011;7545;52.092;7.006;2024-02-21T12:51:43;7.88;;;2.53;;
14907;SDS011;7545;52.092;7.006;2024-02-21T12:54:11;5.47;;;2.72;;
14907;SDS011;7545;52.092;7.006;2024-02-21T12:56:37;7.15;;;2.85;;
14907;SDS011;7545;52.092;7.006;2024-02-21T12:59:02;5.18;;;2.45;;
14907;SDS011;7545;52.092;7.006;2024-02-21T13:01:28;3.97;;;2.55;;
14907;SDS011;7545;52.092;7.006;2024-02-21T13:03:54;5.00;;;2.22;;
14907;SDS011;7545;52.092;7.006;2024-02-21T13:06:20;5.60;;;2.35;;
14907;SDS011;7545;52.092;7.006;2024-02-21T13:08:46;6.00;;;2.78;;
14907;SDS011;7545;52.092;7.006;2024-02-21T13:11:12;6.65;;;2.53;;
14907;SDS011;7545;52.092;7.006;2024-02-21T13:13:38;6.95;;;2.53;;
14907;SDS011;7545;52.092;7.006;2024-02-21T13:16:03;6.55;;;2.85;;
14907;SDS011;7545;52.092;7.006;2024-02-21T13:18:29;7.72;;;2.58;;
14907;SDS011;7545;52.092;7.006;2024-02-21T13:20:55;6.18;;;2.58;;
14907;SDS011;7545;52.092;7.006;2024-02-21T13:23:21;10.90;;;4.50;;
14907;SDS011;7545;52.092;7.006;2024-02-21T13:25:47;4.97;;;2.40;;
14907;SDS011;7545;52.092;7.006;2024-02-21T13:28:12;5.97;;;2.42;;
14907;SDS011;7545;52.092;7.006;2024-02-21T13:30:39;6.32;;;2.63;;
14907;SDS011;7545;52.092;7.006;2024-02-21T13:33:06;3.60;;;2.40;;
14907;SDS011;7545;52.092;7.006;2024-02-21T13:35:32;9.82;;;3.08;;
14907;SDS011;7545;52.092;7.006;2024-02-21T13:37:57;5.03;;;2.55;;
14907;SDS011;7545;52.092;7.006;2024-02-21T13:40:23;6.60;;;3.05;;
14907;SDS011;7545;52.092;7.006;2024-02-21T13:42:50;12.45;;;3.72;;
14907;SDS011;7545;52.092;7.006;2024-02-21T13:45:16;4.35;;;2.70;;
14907;SDS011;7545;52.092;7.006;2024-02-21T13:47:41;8.00;;;2.92;;
14907;SDS011;7545;52.092;7.006;2024-02-21T13:50:07;5.78;;;2.70;;
14907;SDS011;7545;52.092;7.006;2024-02-21T13:52:36;5.75;;;2.45;;
14907;SDS011;7545;52.092;7.006;2024-02-21T13:55:02;6.68;;;2.53;;
14907;SDS011;7545;52.092;7.006;2024-02-21T13:57:28;10.68;;;3.30;;
14907;SDS011;7545;52.092;7.006;2024-02-21T13:59:54;4.63;;;2.45;;
14907;SDS011;7545;52.092;7.006;2024-02-21T14:02:19;5.28;;;2.55;;
14907;SDS011;7545;52.092;7.006;2024-02-21T14:04:46;5.43;;;2.55;;
14907;SDS011;7545;52.092;7.006;2024-02-21T14:07:12;4.65;;;2.28;;
14907;SDS011;7545;52.092;7.006;2024-02-21T14:09:37;5.93;;;2.33;;
14907;SDS011;7545;52.092;7.006;2024-02-21T14:12:03;6.50;;;2.90;;
14907;SDS011;7545;52.092;7.006;2024-02-21T14:14:32;8.18;;;3.10;;
14907;SDS011;7545;52.092;7.006;2024-02-21T14:16:59;4.45;;;2.78;;
14907;SDS011;7545;52.092;7.006;2024-02-21T14:19:25;6.78;;;2.63;;
14907;SDS011;7545;52.092;7.006;2024-02-21T14:21:50;6.55;;;2.42;;
14907;SDS011;7545;52.092;7.006;2024-02-21T14:24:16;5.55;;;2.40;;
14907;SDS011;7545;52.092;7.006;2024-02-21T14:26:42;5.68;;;2.97;;
14907;SDS011;7545;52.092;7.006;2024-02-21T14:29:07;7.70;;;2.70;;
14907;SDS011;7545;52.092;7.006;2024-02-21T14:31:33;5.18;;;2.63;;
14907;SDS011;7545;52.092;7.006;2024-02-21T14:33:59;4.78;;;2.50;;
14907;SDS011;7545;52.092;7.006;2024-02-21T14:36:25;4.35;;;2.50;;
14907;SDS011;7545;52.092;7.006;2024-02-21T14:38:51;5.07;;;2.42;;
14907;SDS011;7545;52.092;7.006;2024-02-21T14:41:17;5.68;;;2.42;;
14907;SDS011;7545;52.092;7.006;2024-02-21T14:43:43;3.90;;;2.50;;
14907;SDS011;7545;52.092;7.006;2024-02-21T14:46:09;6.00;;;2.55;;
14907;SDS011;7545;52.092;7.006;2024-02-21T14:48:34;8.68;;;2.60;;
14907;SDS011;7545;52.092;7.006;2024-02-21T14:51:01;4.72;;;2.00;;
14907;SDS011;7545;52.092;7.006;2024-02-21T14:53:27;9.20;;;2.55;;
14907;SDS011;7545;52.092;7.006;2024-02-21T14:55:52;6.70;;;2.70;;
14907;SDS011;7545;52.092;7.006;2024-02-21T14:58:18;6.05;;;1.98;;